Weather History for Ruston, LA

Change the Weather History Date:

Sunday, January 20, 2013

  Actual Average Record
Temperature  
Mean Temperature 50 °F -  
Max Temperature 67 °F 55 °F 80 °F (2012)
Min Temperature 32 °F 34 °F 11 °F (1943)
Degree Days  
Heating Degree Days 16    
Moisture  
Dew Point 38 °F    
Average Humidity 75    
Maximum Humidity 100    
Minimum Humidity 31    
Precipitation  
Precipitation 0.00 in - - ()
Sea Level Pressure  
Sea Level Pressure 30.24 in    
Wind  
Wind Speed 1 mph (South)    
Max Wind Speed 7 mph    
Max Gust Speed -    
Visibility 10 miles    
Events      
Averages and records for this station are not official NWS values.
T = Trace of Precipitation, MM = Missing Value Source: NWS Daily Summary

Daily Weather History Graph

Daily Weather History Graph

Search for Another Location

Airport:

Trip Planner

Search our weather history database for the weather conditions in past years. The results will help you decide how hot, cold, wet, or windy it might be!

Date:

Astronomy

Jan. 20, 2013 Rise Set
Actual Time 7:10 AM CST 5:32 PM CST
Civil Twilight 6:44 AM CST 5:58 PM CST
Nautical Twilight 6:14 AM CST 6:28 PM CST
Astronomical Twilight 5:45 AM CST 6:58 PM CST
Moon 12:33 PM CST (1/20) 1:45 AM CST (1/20)
Length of Visible Light 11h 14m
Length of Day
10h 21m
Waxing Gibbous, 66% of the Moon is Illuminated
Jan 20
Waxing Gibbous
Jan 26
Full
Feb 3
Last Quarter
Feb 10
New
Feb 17
First Quarter

Hourly Weather History & Observations

Time (CST) Temp. Windchill Dew Point Humidity Pressure Visibility Wind Dir Wind Speed Gust Speed Precip Events Conditions
12:15 AM 36.7 °F - 36.1 °F 98% 30.29 in 10.0 mi Calm Calm - N/A   Clear
12:35 AM 36.3 °F - 34.3 °F 93% 30.29 in 10.0 mi Calm Calm - N/A   Clear
12:55 AM 36.0 °F - 35.1 °F 97% 30.29 in 10.0 mi Calm Calm - N/A   Clear
1:15 AM 34.7 °F - 34.2 °F 98% 30.29 in 10.0 mi Calm Calm - N/A   Clear
1:35 AM 34.7 °F - 34.7 °F 100% 30.29 in 10.0 mi Calm Calm - N/A   Clear
1:55 AM 34.7 °F - 34.7 °F 100% 30.29 in 10.0 mi Calm Calm - N/A   Clear
2:15 AM 33.6 °F - 33.6 °F 100% 30.29 in 10.0 mi Calm Calm - N/A   Clear
2:35 AM 33.6 °F - 33.6 °F 100% 30.29 in 10.0 mi Calm Calm - N/A   Clear
2:55 AM 33.4 °F 29.1 °F 33.4 °F 100% 30.29 in 10.0 mi SW 4.6 mph - N/A   Clear
3:15 AM 37.8 °F 35.3 °F 34.7 °F 89% 30.29 in 10.0 mi SW 3.5 mph - N/A   Clear
3:35 AM 35.8 °F - 33.1 °F 90% 30.29 in 10.0 mi Calm Calm - N/A   Clear
3:55 AM 33.1 °F - 32.2 °F 96% 30.28 in 10.0 mi Calm Calm - N/A   Clear
4:15 AM 32.7 °F - 32.7 °F 100% 30.28 in 10.0 mi Calm Calm - N/A   Clear
4:35 AM 33.1 °F - 33.1 °F 100% 30.27 in 10.0 mi Calm Calm - N/A   Clear
4:55 AM 34.0 °F - 34.0 °F 100% 30.27 in 10.0 mi Calm Calm - N/A   Clear
5:15 AM 32.2 °F - 32.2 °F 100% 30.27 in 7.0 mi Calm Calm - N/A   Clear
5:35 AM 32.5 °F - 32.5 °F 100% 30.27 in 10.0 mi Calm Calm - N/A   Clear
5:55 AM 32.2 °F - 32.2 °F 100% 30.28 in 10.0 mi Calm Calm - N/A   Clear
6:15 AM 32.2 °F - 32.2 °F 100% 30.28 in 10.0 mi Calm Calm - N/A   Clear
6:35 AM 32.0 °F - 32.0 °F 100% 30.28 in 10.0 mi Calm Calm - N/A   Clear
6:55 AM 32.0 °F - 32.0 °F 100% 30.28 in 10.0 mi Calm Calm - N/A   Clear
7:15 AM 32.0 °F - 32.0 °F 100% 30.28 in 10.0 mi Calm Calm - N/A   Clear
7:35 AM 32.2 °F - 32.2 °F 100% 30.29 in 10.0 mi Calm Calm - N/A   Clear
7:55 AM 33.8 °F - 33.8 °F 100% 30.29 in 10.0 mi Calm Calm - N/A   Clear
8:35 AM 41.5 °F - 41.5 °F 100% 30.29 in 10.0 mi Calm Calm - N/A   Clear
8:55 AM 46.2 °F - 45.9 °F 99% 30.29 in 10.0 mi Calm Calm - N/A   Clear
9:15 AM 50.5 °F - 43.7 °F 77% 30.29 in 10.0 mi Calm Calm - N/A   Clear
9:35 AM 53.1 °F - 43.9 °F 71% 30.30 in 10.0 mi Calm Calm - N/A   Clear
9:55 AM 56.1 °F - 43.9 °F 64% 30.30 in 10.0 mi Calm Calm - N/A   Clear
10:15 AM 58.3 °F - 43.3 °F 58% 30.30 in 10.0 mi Calm Calm - N/A   Clear
10:35 AM 60.1 °F - 41.4 °F 50% 30.31 in 10.0 mi NNW 3.5 mph - N/A   Clear
10:55 AM 60.3 °F - 39.6 °F 46% 30.30 in 10.0 mi North 4.6 mph - N/A   Clear
11:15 AM 61.9 °F - 39.2 °F 43% 30.29 in 10.0 mi Calm Calm - N/A   Clear
11:35 AM 61.9 °F - 38.8 °F 43% 30.28 in 10.0 mi ENE 3.5 mph - N/A   Clear
11:55 AM 63.1 °F - 38.5 °F 40% 30.27 in 10.0 mi ESE 3.5 mph - N/A   Clear
12:15 PM 63.3 °F - 38.1 °F 39% 30.26 in 10.0 mi Calm Calm - N/A   Clear
12:35 PM 64.4 °F - 37.4 °F 37% 30.24 in 10.0 mi ESE 3.5 mph - N/A   Clear
12:55 PM 65.8 °F - 36.7 °F 34% 30.23 in 10.0 mi Calm Calm - N/A   Clear
1:15 PM 65.7 °F - 37.0 °F 35% 30.22 in 10.0 mi SSE 6.9 mph - N/A   Clear
1:35 PM 64.8 °F - 36.3 °F 35% 30.21 in 10.0 mi Calm Calm - N/A   Clear
1:55 PM 66.4 °F - 35.8 °F 32% 30.21 in 10.0 mi SE 4.6 mph - N/A   Clear
2:15 PM 65.7 °F - 35.4 °F 33% 30.20 in 10.0 mi Calm Calm - N/A   Clear
2:35 PM 67.1 °F - 36.7 °F 33% 30.19 in 10.0 mi WSW 4.6 mph - N/A   Clear
2:55 PM 66.0 °F - 36.0 °F 33% 30.18 in 10.0 mi Calm Calm - N/A   Clear
3:15 PM 66.4 °F - 35.4 °F 32% 30.18 in 10.0 mi SW 3.5 mph - N/A   Clear
3:35 PM 66.7 °F - 35.6 °F 32% 30.18 in 10.0 mi SW 3.5 mph - N/A   Clear
3:55 PM 66.2 °F - 35.6 °F 32% 30.18 in 10.0 mi Calm Calm - N/A   Clear
4:15 PM 66.2 °F - 34.7 °F 31% 30.18 in 10.0 mi Calm Calm - N/A   Clear
4:35 PM 65.5 °F - 35.2 °F 33% 30.18 in 10.0 mi Calm Calm - N/A   Clear
4:55 PM 63.3 °F - 38.1 °F 39% 30.18 in 10.0 mi Calm Calm - N/A   Clear
5:15 PM 59.2 °F - 41.4 °F 52% 30.18 in 10.0 mi Calm Calm - N/A   Clear
5:35 PM 55.6 °F - 41.0 °F 58% 30.18 in 10.0 mi Calm Calm - N/A   Clear
5:55 PM 53.2 °F - 41.9 °F 65% 30.18 in 10.0 mi Calm Calm - N/A   Clear
6:15 PM 51.1 °F - 42.3 °F 72% 30.18 in 10.0 mi Calm Calm - N/A   Clear
6:35 PM 49.6 °F - 42.3 °F 76% 30.18 in 10.0 mi Calm Calm - N/A   Clear
6:55 PM 49.5 °F - 41.2 °F 73% 30.19 in 10.0 mi Calm Calm - N/A   Clear
7:15 PM 49.3 °F - 41.0 °F 73% 30.19 in 10.0 mi Calm Calm - N/A   Clear
7:35 PM 48.6 °F - 41.2 °F 76% 30.19 in 10.0 mi Calm Calm - N/A   Clear
7:55 PM 46.8 °F - 41.5 °F 82% 30.19 in 10.0 mi Calm Calm - N/A   Clear
8:15 PM 45.7 °F - 40.3 °F 81% 30.19 in 10.0 mi Calm Calm - N/A   Clear
8:35 PM 44.4 °F - 40.8 °F 87% 30.19 in 10.0 mi Calm Calm - N/A   Clear
8:55 PM 43.9 °F - 40.5 °F 88% 30.20 in 10.0 mi Calm Calm - N/A   Clear
9:15 PM 43.2 °F - 41.5 °F 94% 30.19 in 10.0 mi Calm Calm - N/A   Clear
9:35 PM 42.1 °F - 41.0 °F 96% 30.20 in 10.0 mi Calm Calm - N/A   Clear
9:55 PM 41.2 °F - 40.6 °F 98% 30.20 in 10.0 mi Calm Calm - N/A   Clear
10:15 PM 41.5 °F - 41.5 °F 100% 30.20 in 10.0 mi Calm Calm - N/A   Clear
10:35 PM 40.8 °F 38.8 °F 40.8 °F 100% 30.20 in 10.0 mi South 3.5 mph - N/A   Clear
10:55 PM 41.0 °F 39.0 °F 39.7 °F 95% 30.20 in 10.0 mi South 3.5 mph - N/A   Clear
11:15 PM 42.1 °F 40.2 °F 39.6 °F 91% 30.20 in 10.0 mi South 3.5 mph - N/A   Clear
11:35 PM 40.3 °F - 39.0 °F 95% 30.19 in 10.0 mi Calm Calm - N/A   Clear
11:55 PM 40.3 °F - 40.1 °F 99% 30.19 in 10.0 mi Calm Calm - N/A   Clear